createdAt,value
2023-05-21T00:00:23.456Z,16.38
2023-05-21T00:02:51.423Z,16.40
2023-05-21T00:05:18.896Z,16.37
2023-05-21T00:07:47.192Z,16.40
2023-05-21T00:10:14.154Z,16.37
2023-05-21T00:12:41.919Z,16.40
2023-05-21T00:15:10.106Z,16.39
2023-05-21T00:17:37.217Z,16.38
2023-05-21T00:20:09.105Z,16.39
2023-05-21T00:22:36.294Z,16.39
2023-05-21T00:25:03.968Z,16.32
2023-05-21T00:27:30.701Z,16.30
2023-05-21T00:29:57.445Z,16.28
2023-05-21T00:32:24.377Z,16.27
2023-05-21T00:34:51.126Z,16.22
2023-05-21T00:37:17.892Z,16.24
2023-05-21T00:39:44.352Z,16.22
2023-05-21T00:42:12.170Z,16.14
2023-05-21T00:44:39.531Z,16.15
2023-05-21T00:47:06.621Z,16.10
2023-05-21T00:49:33.327Z,16.09
2023-05-21T00:52:01.724Z,16.09
2023-05-21T00:54:28.894Z,16.09
2023-05-21T00:56:56.540Z,16.06
2023-05-21T00:59:23.907Z,16.02
2023-05-21T01:01:56.553Z,15.93
2023-05-21T01:04:24.041Z,15.95
2023-05-21T01:06:51.095Z,15.98
2023-05-21T01:09:17.920Z,15.98
2023-05-21T01:11:47.983Z,15.98
2023-05-21T01:14:16.769Z,16.00
2023-05-21T01:16:46.961Z,15.99
2023-05-21T01:19:21.368Z,15.99
2023-05-21T01:21:53.588Z,15.97
2023-05-21T01:24:20.272Z,15.94
2023-05-21T01:26:46.977Z,15.97
2023-05-21T01:29:14.549Z,15.97
2023-05-21T01:31:53.756Z,16.02
2023-05-21T01:34:24.730Z,16.01
2023-05-21T01:36:59.945Z,15.99
2023-05-21T01:39:32.610Z,15.90
2023-05-21T01:42:03.385Z,15.97
2023-05-21T01:44:31.696Z,15.91
2023-05-21T01:46:59.597Z,15.86
2023-05-21T01:49:26.432Z,15.87
2023-05-21T01:51:53.255Z,15.85
2023-05-21T01:54:19.753Z,15.89
2023-05-21T01:56:47.849Z,15.87
2023-05-21T01:59:14.487Z,15.78
2023-05-21T02:01:41.218Z,15.80
2023-05-21T02:04:07.983Z,15.77
2023-05-21T02:06:35.980Z,15.77
2023-05-21T02:09:03.648Z,15.70
2023-05-21T02:11:30.641Z,15.71
2023-05-21T02:13:57.593Z,15.71
2023-05-21T02:16:25.679Z,15.63
2023-05-21T02:18:53.810Z,15.60
2023-05-21T02:21:20.739Z,15.61
2023-05-21T02:23:47.303Z,15.63
2023-05-21T02:26:13.776Z,15.60
2023-05-21T02:28:40.662Z,15.54
2023-05-21T02:31:07.345Z,15.55
2023-05-21T02:33:36.414Z,15.50
2023-05-21T02:36:06.453Z,15.50
2023-05-21T02:38:33.661Z,15.44
2023-05-21T02:41:00.336Z,15.46
2023-05-21T02:43:27.041Z,15.30
2023-05-21T02:45:53.910Z,15.40
2023-05-21T02:48:20.873Z,15.35
2023-05-21T02:50:47.390Z,15.24
2023-05-21T02:53:13.966Z,15.30
2023-05-21T02:55:42.279Z,15.28
2023-05-21T02:58:08.999Z,15.29
2023-05-21T03:00:35.609Z,15.24
2023-05-21T03:03:02.255Z,15.14
2023-05-21T03:05:28.921Z,15.26
2023-05-21T03:07:55.686Z,15.16
2023-05-21T03:10:22.212Z,15.12
2023-05-21T03:12:48.790Z,15.11
2023-05-21T03:15:15.978Z,15.03
2023-05-21T03:17:44.487Z,15.05
2023-05-21T03:20:17.003Z,14.98
2023-05-21T03:22:45.175Z,15.04
2023-05-21T03:25:12.603Z,14.94
2023-05-21T03:27:39.428Z,14.96
2023-05-21T03:30:06.909Z,14.97
2023-05-21T03:32:38.182Z,14.91
2023-05-21T03:35:05.444Z,14.89
2023-05-21T03:37:32.251Z,14.81
2023-05-21T03:39:58.787Z,14.85
2023-05-21T03:42:25.402Z,14.84
2023-05-21T03:44:51.941Z,14.84
2023-05-21T03:47:18.681Z,14.84
2023-05-21T03:49:45.718Z,14.84
2023-05-21T03:52:12.254Z,14.79
2023-05-21T03:54:38.832Z,14.77
2023-05-21T03:57:05.616Z,14.83
2023-05-21T03:59:32.048Z,14.79
2023-05-21T04:01:58.654Z,14.82
2023-05-21T04:04:25.465Z,14.80
2023-05-21T04:06:54.240Z,14.77
2023-05-21T04:09:21.140Z,14.64
2023-05-21T04:11:47.993Z,14.79
2023-05-21T04:14:14.823Z,14.77
2023-05-21T04:16:43.949Z,14.75
2023-05-21T04:19:10.746Z,14.77
2023-05-21T04:21:37.413Z,14.77
2023-05-21T04:24:05.074Z,14.79
2023-05-21T04:26:33.893Z,14.74
2023-05-21T04:29:03.762Z,14.83
2023-05-21T04:31:33.240Z,14.86
2023-05-21T04:33:59.909Z,14.88
2023-05-21T04:36:29.037Z,14.86
2023-05-21T04:38:56.123Z,14.85
2023-05-21T04:41:22.664Z,14.91
2023-05-21T04:43:49.428Z,14.91
2023-05-21T04:46:16.075Z,14.86
2023-05-21T04:48:42.779Z,14.96
2023-05-21T04:51:09.341Z,15.00
2023-05-21T04:53:35.843Z,15.07
2023-05-21T04:56:03.966Z,15.12
2023-05-21T04:58:32.859Z,15.20
2023-05-21T05:01:03.082Z,15.25
2023-05-21T05:03:30.270Z,15.28
2023-05-21T05:05:56.991Z,15.30
2023-05-21T05:08:23.515Z,15.36
2023-05-21T05:10:50.075Z,15.40
2023-05-21T05:13:16.915Z,15.39
2023-05-21T05:15:43.564Z,15.51
2023-05-21T05:18:10.270Z,15.45
2023-05-21T05:20:36.848Z,15.48
2023-05-21T05:23:03.685Z,15.60
2023-05-21T05:25:31.273Z,15.63
2023-05-21T05:27:57.713Z,15.71
2023-05-21T05:30:24.159Z,15.70
2023-05-21T05:32:50.849Z,15.77
2023-05-21T05:35:17.449Z,15.80
2023-05-21T05:37:44.161Z,15.78
2023-05-21T05:40:11.113Z,15.83
2023-05-21T05:42:37.757Z,15.91
2023-05-21T05:45:04.620Z,15.89
2023-05-21T05:47:31.491Z,15.97
2023-05-21T05:49:58.060Z,16.02
2023-05-21T05:52:24.742Z,16.08
2023-05-21T05:54:51.431Z,16.06
2023-05-21T05:57:17.928Z,16.13
2023-05-21T05:59:44.469Z,16.18
2023-05-21T06:02:10.986Z,16.28
2023-05-21T06:04:37.645Z,16.33
2023-05-21T06:07:04.270Z,16.40
2023-05-21T06:09:31.061Z,16.48
2023-05-21T06:11:57.764Z,16.53
2023-05-21T06:14:24.190Z,16.59
2023-05-21T06:16:50.847Z,16.66
2023-05-21T06:19:17.520Z,16.70
2023-05-21T06:21:44.291Z,16.83
2023-05-21T06:24:11.016Z,16.88
2023-05-21T06:26:37.572Z,17.00
2023-05-21T06:29:04.170Z,17.12
2023-05-21T06:31:32.942Z,17.23
2023-05-21T06:34:00.843Z,17.32
2023-05-21T06:36:30.024Z,17.41
2023-05-21T06:38:59.334Z,17.46
2023-05-21T06:41:26.532Z,17.49
2023-05-21T06:43:53.090Z,17.47
2023-05-21T06:46:19.742Z,17.40
2023-05-21T06:48:46.427Z,17.47
2023-05-21T06:51:13.239Z,17.45
2023-05-21T06:53:39.755Z,17.44
2023-05-21T06:56:06.493Z,17.45
2023-05-21T06:58:33.253Z,17.42
2023-05-21T07:01:01.034Z,17.42
2023-05-21T07:03:27.803Z,17.44
2023-05-21T07:05:54.825Z,17.42
2023-05-21T07:08:21.366Z,17.43
2023-05-21T07:10:48.011Z,17.48
2023-05-21T07:13:15.677Z,17.51
2023-05-21T07:15:42.359Z,17.48
2023-05-21T07:18:09.068Z,17.47
2023-05-21T07:20:35.604Z,17.56
2023-05-21T07:23:02.110Z,17.58
2023-05-21T07:25:28.604Z,17.65
2023-05-21T07:27:55.093Z,17.75
2023-05-21T07:30:21.573Z,17.82
2023-05-21T07:32:48.318Z,17.87
2023-05-21T07:35:15.156Z,18.03
2023-05-21T07:37:41.886Z,18.09
2023-05-21T07:40:09.160Z,18.20
2023-05-21T07:42:35.719Z,18.32
2023-05-21T07:45:02.430Z,18.33
2023-05-21T07:47:28.939Z,18.50
2023-05-21T07:49:55.488Z,18.63
2023-05-21T07:52:22.111Z,18.84
2023-05-21T07:54:48.654Z,19.01
2023-05-21T07:57:15.176Z,19.20
2023-05-21T07:59:41.805Z,19.38
2023-05-21T08:02:08.459Z,19.54
2023-05-21T08:04:35.310Z,19.75
2023-05-21T08:07:02.064Z,20.03
2023-05-21T08:09:28.602Z,20.16
2023-05-21T08:11:55.145Z,20.41
2023-05-21T08:14:21.686Z,20.62
2023-05-21T08:16:48.499Z,20.84
2023-05-21T08:19:15.207Z,20.97
2023-05-21T08:21:41.735Z,21.18
2023-05-21T08:24:08.313Z,21.43
2023-05-21T08:26:35.586Z,21.57
2023-05-21T08:29:02.587Z,21.77
2023-05-21T08:31:29.259Z,21.90
2023-05-21T08:33:56.803Z,22.03
2023-05-21T08:36:23.434Z,22.03
2023-05-21T08:38:49.958Z,22.07
2023-05-21T08:41:21.791Z,22.10
2023-05-21T08:43:54.291Z,22.16
2023-05-21T08:46:24.917Z,22.15
2023-05-21T08:48:55.169Z,22.03
2023-05-21T08:51:22.485Z,21.98
2023-05-21T08:53:50.802Z,22.02
2023-05-21T08:56:18.340Z,21.96
2023-05-21T08:58:48.982Z,22.02
2023-05-21T09:01:18.850Z,22.00
2023-05-21T09:03:46.976Z,21.89
2023-05-21T09:06:16.814Z,21.71
2023-05-21T09:08:45.946Z,21.45
2023-05-21T09:11:13.932Z,21.44
2023-05-21T09:13:41.961Z,21.37
2023-05-21T09:16:09.772Z,21.35
2023-05-21T09:18:36.625Z,21.41
2023-05-21T09:21:24.626Z,21.52
2023-05-21T09:23:59.005Z,21.52
2023-05-21T09:26:26.756Z,21.69
2023-05-21T09:28:58.115Z,21.72
2023-05-21T09:31:26.120Z,21.81
2023-05-21T09:33:53.340Z,21.95
2023-05-21T09:36:23.395Z,22.15
2023-05-21T09:38:52.013Z,22.22
2023-05-21T09:41:21.854Z,22.37
2023-05-21T09:43:49.181Z,22.53
2023-05-21T09:46:16.078Z,22.54
2023-05-21T09:48:43.419Z,22.53
2023-05-21T09:51:17.632Z,22.60
2023-05-21T09:53:51.881Z,22.68
2023-05-21T09:56:26.222Z,22.86
2023-05-21T09:58:57.717Z,22.98
2023-05-21T10:01:25.256Z,23.15
2023-05-21T10:03:57.195Z,23.20
2023-05-21T10:06:32.141Z,23.26
2023-05-21T10:09:05.631Z,23.29
2023-05-21T10:11:34.597Z,23.25
2023-05-21T10:14:06.045Z,23.32
2023-05-21T10:16:34.185Z,23.42
2023-05-21T10:19:00.866Z,23.40
2023-05-21T10:21:27.885Z,23.33
2023-05-21T10:23:57.633Z,23.38
2023-05-21T10:26:24.886Z,23.34
2023-05-21T10:28:52.245Z,23.37
2023-05-21T10:31:19.096Z,23.30
2023-05-21T10:33:45.700Z,23.32
2023-05-21T10:36:13.043Z,23.32
2023-05-21T10:38:40.744Z,23.28
2023-05-21T10:41:08.507Z,23.23
2023-05-21T10:43:47.387Z,23.21
2023-05-21T10:46:40.224Z,23.23
2023-05-21T10:49:15.321Z,23.22
2023-05-21T10:52:07.459Z,23.12
2023-05-21T10:54:56.036Z,23.25
2023-05-21T10:57:31.643Z,23.34
2023-05-21T10:59:58.773Z,23.42
2023-05-21T11:02:26.922Z,23.41
2023-05-21T11:05:01.237Z,23.32
2023-05-21T11:08:01.532Z,23.37
2023-05-21T11:10:41.016Z,23.33
2023-05-21T11:13:12.249Z,23.26
2023-05-21T11:15:57.728Z,23.26
2023-05-21T11:18:30.761Z,23.27
2023-05-21T11:21:30.582Z,23.25
2023-05-21T11:24:03.761Z,23.24
2023-05-21T11:26:50.342Z,23.40
2023-05-21T11:29:17.624Z,23.50
2023-05-21T11:31:49.397Z,23.43
2023-05-21T11:34:28.644Z,23.54
2023-05-21T11:37:23.057Z,23.68
2023-05-21T11:39:51.268Z,23.77
2023-05-21T11:42:31.035Z,23.90
2023-05-21T11:45:01.226Z,23.97
2023-05-21T11:47:29.733Z,23.94
2023-05-21T11:49:58.116Z,24.05
2023-05-21T11:52:25.374Z,24.30
2023-05-21T11:54:57.332Z,24.53
2023-05-21T11:57:30.915Z,24.47
2023-05-21T11:59:59.687Z,24.49
2023-05-21T12:02:28.471Z,24.44
2023-05-21T12:04:59.942Z,24.39
2023-05-21T12:07:31.519Z,24.18
2023-05-21T12:09:58.592Z,24.11
2023-05-21T12:12:30.789Z,24.05
2023-05-21T12:15:02.500Z,24.11
2023-05-21T12:17:31.219Z,24.12
2023-05-21T12:19:57.946Z,24.17
2023-05-21T12:22:25.494Z,24.24
2023-05-21T12:24:53.728Z,24.28
2023-05-21T12:27:21.582Z,24.23
2023-05-21T12:29:51.792Z,24.39
2023-05-21T12:32:19.795Z,24.44
2023-05-21T12:34:56.346Z,24.46
2023-05-21T12:37:35.557Z,24.56
2023-05-21T12:40:10.955Z,24.73
2023-05-21T12:42:39.915Z,24.76
2023-05-21T12:45:08.266Z,24.66
2023-05-21T12:47:35.694Z,24.83
2023-05-21T12:50:04.461Z,24.78
2023-05-21T12:52:31.056Z,24.77
2023-05-21T12:54:58.556Z,24.95
2023-05-21T12:57:28.225Z,25.03
2023-05-21T13:00:00.287Z,24.93
2023-05-21T13:02:32.781Z,24.97
2023-05-21T13:05:01.554Z,24.78
2023-05-21T13:07:30.432Z,24.79
2023-05-21T13:09:57.571Z,24.70
2023-05-21T13:12:26.058Z,24.76
2023-05-21T13:14:56.138Z,24.78
2023-05-21T13:17:23.643Z,24.88
2023-05-21T13:20:23.215Z,24.94
2023-05-21T13:22:51.595Z,25.11
2023-05-21T13:25:28.700Z,25.14
2023-05-21T13:27:56.092Z,25.21
2023-05-21T13:30:22.876Z,25.15
2023-05-21T13:32:49.836Z,25.04
2023-05-21T13:35:17.134Z,25.08
2023-05-21T13:37:46.022Z,25.12
2023-05-21T13:40:15.079Z,25.08
2023-05-21T13:42:47.644Z,25.08
2023-05-21T13:45:16.368Z,25.27
2023-05-21T13:47:44.801Z,25.48
2023-05-21T13:50:12.111Z,25.51
2023-05-21T13:52:38.962Z,25.39
2023-05-21T13:55:05.997Z,25.22
2023-05-21T13:57:32.687Z,25.20
2023-05-21T14:00:00.137Z,25.21
2023-05-21T14:02:27.108Z,25.27
2023-05-21T14:04:53.924Z,25.30
2023-05-21T14:07:21.639Z,25.45
2023-05-21T14:09:48.298Z,25.61
2023-05-21T14:12:14.914Z,25.64
2023-05-21T14:14:42.110Z,25.64
2023-05-21T14:17:08.909Z,25.47
2023-05-21T14:19:35.639Z,25.62
2023-05-21T14:22:02.394Z,25.63
2023-05-21T14:24:28.879Z,25.78
2023-05-21T14:26:55.348Z,25.82
2023-05-21T14:29:21.759Z,25.99
2023-05-21T14:31:48.630Z,26.00
2023-05-21T14:34:15.149Z,26.08
2023-05-21T14:36:41.835Z,25.86
2023-05-21T14:39:08.309Z,25.76
2023-05-21T14:41:38.832Z,25.69
2023-05-21T14:44:05.365Z,25.55
2023-05-21T14:46:32.567Z,25.64
2023-05-21T14:49:00.158Z,25.61
2023-05-21T14:51:26.645Z,25.62
2023-05-21T14:53:53.105Z,25.57
2023-05-21T14:56:22.127Z,25.55
2023-05-21T14:58:49.096Z,25.61
2023-05-21T15:01:15.586Z,25.62
2023-05-21T15:03:42.160Z,25.65
2023-05-21T15:06:09.026Z,25.46
2023-05-21T15:08:35.758Z,25.44
2023-05-21T15:11:02.333Z,25.34
2023-05-21T15:13:28.877Z,25.15
2023-05-21T15:15:55.524Z,25.05
2023-05-21T15:18:22.269Z,25.13
2023-05-21T15:20:48.914Z,25.07
2023-05-21T15:23:17.720Z,25.13
2023-05-21T15:25:45.423Z,24.97
2023-05-21T15:28:12.692Z,24.79
2023-05-21T15:30:39.879Z,24.67
2023-05-21T15:33:06.408Z,24.73
2023-05-21T15:35:33.156Z,24.65
2023-05-21T15:38:00.134Z,24.75
2023-05-21T15:40:27.332Z,24.78
2023-05-21T15:42:54.115Z,24.74
2023-05-21T15:45:20.938Z,24.79
2023-05-21T15:47:47.533Z,24.85
2023-05-21T15:50:14.062Z,24.90
2023-05-21T15:52:41.795Z,24.90
2023-05-21T15:55:08.890Z,24.91
2023-05-21T15:57:35.404Z,24.88
2023-05-21T16:00:02.154Z,24.85
2023-05-21T16:02:28.747Z,24.79
2023-05-21T16:04:55.701Z,24.60
2023-05-21T16:07:23.580Z,24.60
2023-05-21T16:09:50.517Z,24.52
2023-05-21T16:12:17.346Z,24.45
2023-05-21T16:14:43.956Z,24.46
2023-05-21T16:17:10.464Z,24.42
2023-05-21T16:19:37.135Z,24.42
2023-05-21T16:22:03.792Z,24.44
2023-05-21T16:24:30.386Z,24.49
2023-05-21T16:26:56.945Z,24.40
2023-05-21T16:29:23.478Z,24.36
2023-05-21T16:31:49.937Z,24.21
2023-05-21T16:34:16.497Z,24.17
2023-05-21T16:36:42.967Z,24.13
2023-05-21T16:39:09.394Z,24.10
2023-05-21T16:41:36.188Z,24.06
2023-05-21T16:44:03.084Z,24.00
2023-05-21T16:46:29.575Z,23.92
2023-05-21T16:48:56.070Z,23.88
2023-05-21T16:51:22.560Z,23.81
2023-05-21T16:53:49.130Z,23.74
2023-05-21T16:56:15.759Z,23.69
2023-05-21T16:58:42.220Z,23.64
2023-05-21T17:01:08.842Z,23.59
2023-05-21T17:03:35.555Z,23.54
2023-05-21T17:06:02.326Z,23.47
2023-05-21T17:08:28.864Z,23.43
2023-05-21T17:10:55.893Z,23.33
2023-05-21T17:13:23.236Z,23.30
2023-05-21T17:15:52.809Z,23.27
2023-05-21T17:18:19.567Z,23.16
2023-05-21T17:20:46.082Z,23.10
2023-05-21T17:23:12.735Z,23.12
2023-05-21T17:25:40.062Z,23.06
2023-05-21T17:28:07.131Z,23.01
2023-05-21T17:30:35.914Z,22.94
2023-05-21T17:33:03.567Z,22.88
2023-05-21T17:35:30.425Z,22.76
2023-05-21T17:37:56.896Z,22.69
2023-05-21T17:40:24.459Z,22.71
2023-05-21T17:42:52.244Z,22.62
2023-05-21T17:45:19.353Z,22.58
2023-05-21T17:47:46.233Z,22.52
2023-05-21T17:50:13.283Z,22.46
2023-05-21T17:52:39.987Z,22.44
2023-05-21T17:55:07.677Z,22.39
2023-05-21T17:57:35.458Z,22.39
2023-05-21T18:00:02.759Z,22.33
2023-05-21T18:02:29.400Z,22.29
2023-05-21T18:04:55.948Z,22.24
2023-05-21T18:07:22.586Z,22.18
2023-05-21T18:09:49.472Z,22.10
2023-05-21T18:12:16.474Z,22.04
2023-05-21T18:14:42.981Z,21.94
2023-05-21T18:17:09.554Z,21.89
2023-05-21T18:19:36.158Z,21.78
2023-05-21T18:22:02.788Z,21.73
2023-05-21T18:24:29.328Z,21.63
2023-05-21T18:26:56.261Z,21.57
2023-05-21T18:29:22.811Z,21.60
2023-05-21T18:31:49.623Z,21.55
2023-05-21T18:34:17.323Z,21.47
2023-05-21T18:36:44.076Z,21.44
2023-05-21T18:39:10.641Z,21.39
2023-05-21T18:41:39.119Z,21.34
2023-05-21T18:44:06.256Z,21.32
2023-05-21T18:46:33.346Z,21.28
2023-05-21T18:49:00.489Z,21.15
2023-05-21T18:51:27.264Z,21.08
2023-05-21T18:53:53.868Z,20.97
2023-05-21T18:56:21.814Z,20.83
2023-05-21T18:58:48.603Z,20.82
2023-05-21T19:01:15.391Z,20.79
2023-05-21T19:03:42.084Z,20.74
2023-05-21T19:06:08.894Z,20.63
2023-05-21T19:08:35.451Z,20.47
2023-05-21T19:11:02.096Z,20.35
2023-05-21T19:13:29.185Z,20.24
2023-05-21T19:15:57.227Z,20.21
2023-05-21T19:18:30.043Z,20.07
2023-05-21T19:20:56.758Z,19.99
2023-05-21T19:23:24.544Z,19.94
2023-05-21T19:25:51.398Z,19.82
2023-05-21T19:28:18.689Z,19.74
2023-05-21T19:30:46.333Z,19.64
2023-05-21T19:33:13.627Z,19.63
2023-05-21T19:35:41.860Z,19.60
2023-05-21T19:38:10.773Z,19.61
2023-05-21T19:40:37.801Z,19.54
2023-05-21T19:43:04.805Z,19.46
2023-05-21T19:45:31.426Z,19.41
2023-05-21T19:47:59.108Z,19.38
2023-05-21T19:50:28.402Z,19.38
2023-05-21T19:52:57.070Z,19.37
2023-05-21T19:55:24.794Z,19.39
2023-05-21T19:57:51.718Z,19.45
2023-05-21T20:00:18.915Z,19.42
2023-05-21T20:02:46.745Z,19.45
2023-05-21T20:05:13.656Z,19.40
2023-05-21T20:07:41.260Z,19.31
2023-05-21T20:10:08.856Z,19.30
2023-05-21T20:12:35.812Z,19.29
2023-05-21T20:15:02.846Z,19.31
2023-05-21T20:17:30.459Z,19.32
2023-05-21T20:19:59.201Z,19.30
2023-05-21T20:22:26.035Z,19.22
2023-05-21T20:24:52.964Z,19.15
2023-05-21T20:27:20.210Z,19.10
2023-05-21T20:29:46.800Z,19.04
2023-05-21T20:32:13.517Z,19.03
2023-05-21T20:34:54.300Z,19.07
2023-05-21T20:37:28.301Z,19.00
2023-05-21T20:39:57.724Z,18.88
2023-05-21T20:42:28.821Z,18.89
2023-05-21T20:44:55.531Z,18.85
2023-05-21T20:47:23.408Z,18.72
2023-05-21T20:49:53.823Z,18.61
2023-05-21T20:52:20.752Z,18.71
2023-05-21T20:54:48.872Z,18.55
2023-05-21T20:57:16.063Z,18.52
2023-05-21T20:59:43.106Z,18.50
2023-05-21T21:02:13.868Z,18.42
2023-05-21T21:04:42.104Z,18.47
2023-05-21T21:07:10.011Z,18.47
2023-05-21T21:09:37.202Z,18.45
2023-05-21T21:12:14.482Z,18.43
2023-05-21T21:14:50.825Z,18.42
2023-05-21T21:17:17.379Z,18.39
2023-05-21T21:19:43.988Z,18.44
2023-05-21T21:22:10.472Z,18.42
2023-05-21T21:24:37.080Z,18.38
2023-05-21T21:27:04.070Z,18.39
2023-05-21T21:29:30.559Z,18.40
2023-05-21T21:31:57.330Z,18.38
2023-05-21T21:34:25.160Z,18.37
2023-05-21T21:36:52.244Z,18.34
2023-05-21T21:39:18.896Z,18.30
2023-05-21T21:41:45.776Z,18.30
2023-05-21T21:44:12.658Z,18.28
2023-05-21T21:46:39.364Z,18.28
2023-05-21T21:49:06.898Z,18.24
2023-05-21T21:51:34.230Z,18.19
2023-05-21T21:54:01.046Z,18.21
2023-05-21T21:56:27.507Z,18.20
2023-05-21T21:58:54.018Z,18.15
2023-05-21T22:01:20.690Z,18.11
2023-05-21T22:03:47.240Z,18.09
2023-05-21T22:06:13.766Z,18.11
2023-05-21T22:08:40.215Z,18.06
2023-05-21T22:11:06.970Z,18.06
2023-05-21T22:13:34.351Z,18.01
2023-05-21T22:16:01.977Z,18.00
2023-05-21T22:18:40.302Z,18.00
2023-05-21T22:21:10.134Z,18.00
2023-05-21T22:23:37.872Z,17.96
2023-05-21T22:26:04.520Z,17.96
2023-05-21T22:28:31.105Z,17.94
2023-05-21T22:30:58.786Z,17.95
2023-05-21T22:33:26.532Z,17.93
2023-05-21T22:35:53.092Z,17.92
2023-05-21T22:38:19.578Z,17.90
2023-05-21T22:40:46.126Z,17.91
2023-05-21T22:43:12.753Z,17.92
2023-05-21T22:45:39.224Z,17.88
2023-05-21T22:48:08.744Z,17.86
2023-05-21T22:50:35.924Z,17.81
2023-05-21T22:53:02.736Z,17.76
2023-05-21T22:55:29.400Z,17.73
2023-05-21T22:57:55.939Z,17.70
2023-05-21T23:00:22.644Z,17.65
2023-05-21T23:02:52.127Z,17.57
2023-05-21T23:05:20.432Z,17.55
2023-05-21T23:07:46.966Z,17.54
2023-05-21T23:10:13.436Z,17.50
2023-05-21T23:12:41.098Z,17.48
2023-05-21T23:15:10.017Z,17.42
2023-05-21T23:17:37.447Z,17.38
2023-05-21T23:20:04.772Z,17.33
2023-05-21T23:22:31.906Z,17.29
2023-05-21T23:24:58.546Z,17.18
2023-05-21T23:27:25.051Z,17.12
2023-05-21T23:29:51.838Z,17.08
2023-05-21T23:32:18.321Z,16.96
2023-05-21T23:34:44.980Z,16.93
2023-05-21T23:37:11.562Z,16.79
2023-05-21T23:39:38.072Z,16.68
2023-05-21T23:42:05.097Z,16.66
2023-05-21T23:44:31.569Z,16.55
2023-05-21T23:46:58.107Z,16.47
2023-05-21T23:49:24.541Z,16.41
2023-05-21T23:51:51.274Z,16.30
2023-05-21T23:54:18.213Z,16.30
2023-05-21T23:56:45.806Z,16.30
2023-05-21T23:59:12.428Z,16.26
